Iowa, Louisiana
Current Conditions -  °F | °C
As of 7:45 AM on Monday 20 Oct 2014 (Local Time) from KCWF Reporting Station
Scattered Clouds Scattered Clouds  
Wind Chill: 57°   Ceiling: Unl
Heat Index: 57°   Visibility: 10mi
Dew Point: 54°   Wind: 8mph
Humidity: 88%   Direction: 40°NE
Pressure: 30.05"   Gusts: NA
Location:  30.24°N, 93.01°W
Report Text: KCWF 201245Z 04007KT 10SM SCT120 14/12 A3005
Loading
Personal Weather Stations






























Interactive Weather Map
Tropical Storm Tracking
New forecast layout! Learn more

10-Day Weather Forecast

Advertisements
Track Severe Weather on mobile